Time;durP1;ratioP1;P1;durP2;ratioP2;P2;SDS_P1;SDS_P2;PMS_P1;PMS_P2;Temp;Humidity;BMP_temperature;BMP_pressure;BME280_temperature;BME280_humidity;BME280_pressure;Samples;Min_cycle;Max_cycle;Signal;HPM_P1;HPM_P2
2020/12/21 00:02:19;;;;;;;;;;;;;;;20.09;38.04;102266.09;5098728;28;1974;-45
2020/12/21 00:04:44;;;;;;;;;;;;;;;19.76;38.88;102262.38;5098795;28;969;-45
2020/12/21 00:07:09;;;;;;;;;;;;;;;19.92;38.51;102262.56;5098700;28;779;-45
2020/12/21 00:09:35;;;;;;;;;;;;;;;20.76;36.92;102258.38;5098765;28;755;-47
2020/12/21 00:12:01;;;;;;;;;;;;;;;20.49;37.12;102259.22;5099206;28;763;-46
2020/12/21 00:14:26;;;;;;;;;;;;;;;20.31;37.62;102254.97;5098634;28;851;-46
2020/12/21 00:16:52;;;;;;;;;;;;;;;20.01;38.17;102263.78;5098919;28;763;-44
2020/12/21 00:19:20;;;;;;;;;;;;;;;19.30;40.05;102265.41;5098451;28;1181;-47
2020/12/21 00:21:50;;;;;;;;;;;;;;;20.39;37.56;102255.56;5098295;28;1907;-47
2020/12/21 00:24:15;;;;;;;;;;;;;;;21.14;36.17;102261.91;5098408;28;831;-45
2020/12/21 00:26:47;;;;;;;;;;;;;;;21.32;35.50;102265.31;5098403;28;838;-46
2020/12/21 00:29:13;;;;;;;;;;;;;;;20.67;36.94;102254.41;5098419;28;822;-50
2020/12/21 00:31:39;;;;;;;;;;;;;;;20.32;37.69;102255.78;5098631;28;858;-48
2020/12/21 00:34:04;;;;;;;;;;;;;;;19.60;39.32;102252.25;5098312;28;862;-46
2020/12/21 00:36:30;;;;;;;;;;;;;;;19.13;40.40;102259.97;5098096;28;957;-47
2020/12/21 00:38:56;;;;;;;;;;;;;;;20.14;38.19;102265.28;5098163;28;751;-48
2020/12/21 00:41:22;;;;;;;;;;;;;;;20.77;36.81;102259.19;5097968;28;1906;-46
2020/12/21 00:43:49;;;;;;;;;;;;;;;20.29;37.94;102259.09;5102511;28;1199;-46
2020/12/21 00:46:18;;;;;;;;;;;;;;;20.20;37.85;102258.69;5117436;28;1160;-47
2020/12/21 00:48:44;;;;;;;;;;;;;;;19.54;39.16;102258.81;5118556;28;795;-49
2020/12/21 00:51:10;;;;;;;;;;;;;;;19.70;39.34;102254.31;5106265;28;960;-46
2020/12/21 00:53:35;;;;;;;;;;;;;;;20.75;36.92;102250.31;5097775;28;755;-45
2020/12/21 00:56:02;;;;;;;;;;;;;;;20.68;36.90;102254.16;5098054;28;767;-47
2020/12/21 00:58:29;;;;;;;;;;;;;;;20.47;37.30;102253.16;5097977;28;799;-45
2020/12/21 01:00:54;;;;;;;;;;;;;;;20.04;38.13;102254.97;5097866;28;1972;-46
2020/12/21 01:03:20;;;;;;;;;;;;;;;19.55;39.38;102252.22;5095915;28;1093;-45
2020/12/21 01:05:45;;;;;;;;;;;;;;;20.00;38.42;102253.84;5097464;28;961;-44
2020/12/21 01:08:10;;;;;;;;;;;;;;;20.73;36.78;102249.75;5097537;28;752;-49
2020/12/21 01:10:36;;;;;;;;;;;;;;;20.32;37.64;102250.25;5097466;28;743;-47
2020/12/21 01:13:01;;;;;;;;;;;;;;;20.34;37.64;102254.44;5097905;28;740;-46
2020/12/21 01:15:27;;;;;;;;;;;;;;;19.87;38.42;102257.03;5097133;28;866;-48
2020/12/21 01:17:52;;;;;;;;;;;;;;;19.85;38.82;102254.50;5097207;28;748;-46
2020/12/21 01:20:17;;;;;;;;;;;;;;;20.72;37.01;102260.00;5097087;28;1196;-48
2020/12/21 01:22:43;;;;;;;;;;;;;;;20.30;37.72;102257.97;5097792;28;1913;-49
2020/12/21 01:25:08;;;;;;;;;;;;;;;20.03;38.06;102256.06;5097193;28;871;-49
2020/12/21 01:27:34;;;;;;;;;;;;;;;19.73;39.07;102249.09;5097384;28;775;-46
2020/12/21 01:29:59;;;;;;;;;;;;;;;19.30;39.83;102250.81;5097073;28;791;-46
2020/12/21 01:32:24;;;;;;;;;;;;;;;20.39;37.67;102250.88;5097008;28;815;-49
2020/12/21 01:34:50;;;;;;;;;;;;;;;20.80;36.69;102248.44;5097098;28;1001;-47
2020/12/21 01:37:15;;;;;;;;;;;;;;;20.25;37.81;102244.13;5097348;28;821;-45
2020/12/21 01:39:48;;;;;;;;;;;;;;;20.09;38.01;102238.47;5097226;28;867;-48
2020/12/21 01:42:16;;;;;;;;;;;;;;;19.47;39.49;102234.19;5096816;28;1913;-46
2020/12/21 01:44:43;;;;;;;;;;;;;;;20.12;38.38;102237.94;5108582;28;1145;-45
2020/12/21 01:47:09;;;;;;;;;;;;;;;20.92;36.61;102241.88;5117294;28;833;-50
2020/12/21 01:49:34;;;;;;;;;;;;;;;20.34;37.65;102237.84;5117402;28;739;-46
2020/12/21 01:52:00;;;;;;;;;;;;;;;20.22;37.98;102239.97;5097716;28;948;-46
2020/12/21 01:54:25;;;;;;;;;;;;;;;19.92;38.44;102241.34;5096625;28;770;-45
2020/12/21 01:56:51;;;;;;;;;;;;;;;19.36;39.97;102237.91;5096936;28;739;-45
2020/12/21 01:59:16;;;;;;;;;;;;;;;20.29;38.00;102234.22;5095483;28;813;-46
2020/12/21 02:01:42;;;;;;;;;;;;;;;20.68;37.01;102223.75;5096525;28;1988;-48
2020/12/21 02:04:07;;;;;;;;;;;;;;;20.23;37.78;102219.53;5095493;28;775;-46
2020/12/21 02:06:32;;;;;;;;;;;;;;;19.99;38.34;102233.69;5096944;28;1135;-51
2020/12/21 02:08:58;;;;;;;;;;;;;;;19.57;39.22;102220.53;5096833;28;735;-46
2020/12/21 02:11:25;;;;;;;;;;;;;;;19.94;38.58;102221.75;5096763;28;999;-45
2020/12/21 02:13:50;;;;;;;;;;;;;;;20.91;36.64;102218.09;5096466;28;850;-45
2020/12/21 02:16:16;;;;;;;;;;;;;;;20.50;37.44;102227.75;5096289;28;795;-48
2020/12/21 02:18:41;;;;;;;;;;;;;;;20.21;37.94;102226.41;5096468;28;1127;-47
2020/12/21 02:21:07;;;;;;;;;;;;;;;19.94;38.35;102228.09;5096421;28;1913;-45
2020/12/21 02:23:33;;;;;;;;;;;;;;;19.56;39.14;102229.03;5096408;28;759;-47
2020/12/21 02:25:58;;;;;;;;;;;;;;;19.31;39.81;102224.91;5096772;28;783;-48
2020/12/21 02:28:23;;;;;;;;;;;;;;;20.38;37.77;102223.50;5095096;28;755;-48
2020/12/21 02:30:49;;;;;;;;;;;;;;;20.49;37.30;102222.50;5096331;28;783;-49
2020/12/21 02:33:14;;;;;;;;;;;;;;;20.34;37.82;102220.44;5096711;28;747;-48
2020/12/21 02:35:40;;;;;;;;;;;;;;;20.00;38.29;102213.25;5096216;28;954;-46
2020/12/21 02:38:08;;;;;;;;;;;;;;;19.34;39.77;102210.59;5096341;28;859;-47
2020/12/21 02:40:36;;;;;;;;;;;;;;;20.24;37.94;102214.84;5096431;28;780;-47
2020/12/21 02:43:02;;;;;;;;;;;;;;;20.67;36.98;102207.41;5096185;28;838;-47
2020/12/21 02:45:28;;;;;;;;;;;;;;;20.28;37.61;102204.94;5114449;28;1256;-46
2020/12/21 02:47:53;;;;;;;;;;;;;;;20.01;38.34;102208.56;5116680;28;862;-47
2020/12/21 02:50:19;;;;;;;;;;;;;;;19.45;39.64;102209.63;5111221;28;996;-46
2020/12/21 02:52:44;;;;;;;;;;;;;;;20.08;38.35;102205.59;5096083;28;871;-48
2020/12/21 02:55:10;;;;;;;;;;;;;;;20.90;36.61;102211.75;5096650;28;835;-48
2020/12/21 02:57:35;;;;;;;;;;;;;;;20.36;37.75;102204.44;5095993;28;834;-46
2020/12/21 03:00:01;;;;;;;;;;;;;;;20.12;38.18;102206.75;5096030;28;756;-46
2020/12/21 03:02:26;;;;;;;;;;;;;;;19.56;39.06;102201.44;5096385;28;1914;-48
2020/12/21 03:04:52;;;;;;;;;;;;;;;19.97;38.66;102201.91;5095857;28;949;-47
2020/12/21 03:07:17;;;;;;;;;;;;;;;20.80;36.96;102193.16;5095958;28;882;-46
2020/12/21 03:09:43;;;;;;;;;;;;;;;21.12;35.92;102183.88;5096054;28;827;-49
2020/12/21 03:12:08;;;;;;;;;;;;;;;20.55;37.16;102190.19;5096420;28;756;-47
2020/12/21 03:14:33;;;;;;;;;;;;;;;20.33;37.50;102188.41;5096199;28;776;-46
2020/12/21 03:16:59;;;;;;;;;;;;;;;19.64;39.26;102184.44;5096233;28;728;-46
2020/12/21 03:19:24;;;;;;;;;;;;;;;19.81;38.94;102192.63;5095895;28;1055;-45
2020/12/21 03:21:50;;;;;;;;;;;;;;;20.66;37.15;102195.53;5095411;28;1888;-46
2020/12/21 03:24:15;;;;;;;;;;;;;;;20.28;37.71;102193.88;5096141;28;772;-46
2020/12/21 03:26:40;;;;;;;;;;;;;;;20.16;38.17;102194.88;5097403;28;775;-47
2020/12/21 03:29:06;;;;;;;;;;;;;;;19.66;39.28;102198.81;5099525;28;831;-47
2020/12/21 03:31:31;;;;;;;;;;;;;;;19.53;39.60;102194.53;5099651;28;882;-48
2020/12/21 03:33:57;;;;;;;;;;;;;;;20.60;37.08;102190.22;5099543;28;762;-49
2020/12/21 03:36:22;;;;;;;;;;;;;;;20.92;36.56;102181.88;5098402;28;1369;-46
2020/12/21 03:38:48;;;;;;;;;;;;;;;20.35;37.79;102183.44;5099235;28;830;-46
2020/12/21 03:41:13;;;;;;;;;;;;;;;20.14;38.14;102188.78;5099628;28;1905;-47
2020/12/21 03:43:38;;;;;;;;;;;;;;;19.51;39.32;102185.69;5102178;28;1101;-46
2020/12/21 03:46:04;;;;;;;;;;;;;;;19.54;39.61;102184.31;5119465;28;831;-47
2020/12/21 03:48:29;;;;;;;;;;;;;;;20.56;37.43;102183.56;5119816;28;817;-49
2020/12/21 03:50:55;;;;;;;;;;;;;;;20.85;36.79;102186.81;5109280;28;1000;-49
2020/12/21 03:53:20;;;;;;;;;;;;;;;20.42;37.60;102180.44;5098930;28;815;-48
2020/12/21 03:55:45;;;;;;;;;;;;;;;20.00;38.28;102177.34;5099113;28;842;-47
2020/12/21 03:58:11;;;;;;;;;;;;;;;19.39;39.74;102174.81;5098911;28;787;-48
2020/12/21 04:00:36;;;;;;;;;;;;;;;19.94;38.48;102177.59;5099115;28;796;-45
2020/12/21 04:03:02;;;;;;;;;;;;;;;20.80;36.78;102181.25;5098821;28;1988;-47
2020/12/21 04:05:27;;;;;;;;;;;;;;;20.39;37.46;102173.50;5090114;28;915;-46
2020/12/21 04:07:53;;;;;;;;;;;;;;;20.27;37.85;102170.97;5087185;28;1280;-47
2020/12/21 04:10:18;;;;;;;;;;;;;;;19.67;39.17;102176.47;5092096;28;1092;-46
2020/12/21 04:12:46;;;;;;;;;;;;;;;19.98;38.78;102173.22;5083370;28;1109;-46
2020/12/21 04:15:11;;;;;;;;;;;;;;;20.85;36.67;102168.28;5087802;28;1142;-49
2020/12/21 04:17:37;;;;;;;;;;;;;;;20.72;37.09;102173.47;5080451;28;1060;-50
2020/12/21 04:20:02;;;;;;;;;;;;;;;20.27;37.72;102165.44;5092119;28;1119;-47
2020/12/21 04:22:28;;;;;;;;;;;;;;;19.80;38.81;102163.38;5088471;28;1918;-49
2020/12/21 04:24:53;;;;;;;;;;;;;;;19.64;39.25;102167.88;5090734;28;978;-47
2020/12/21 04:27:19;;;;;;;;;;;;;;;20.67;37.22;102172.34;5084465;28;1117;-48
2020/12/21 04:29:44;;;;;;;;;;;;;;;20.84;36.48;102163.03;5090337;28;1057;-47
2020/12/21 04:32:09;;;;;;;;;;;;;;;20.25;37.89;102173.13;5081431;28;1038;-46
2020/12/21 04:34:35;;;;;;;;;;;;;;;20.18;38.11;102176.13;5075929;28;1179;-47
2020/12/21 04:37:01;;;;;;;;;;;;;;;19.51;39.58;102173.81;5093079;28;958;-49
2020/12/21 04:39:27;;;;;;;;;;;;;;;19.61;39.49;102174.72;5086133;28;859;-50
2020/12/21 04:41:55;;;;;;;;;;;;;;;20.59;37.28;102178.31;5081499;28;1979;-46
2020/12/21 04:44:21;;;;;;;;;;;;;;;20.52;37.30;102173.06;5088322;28;1025;-48
2020/12/21 04:46:47;;;;;;;;;;;;;;;20.26;37.92;102163.75;5079824;28;1526;-47
2020/12/21 04:49:14;;;;;;;;;;;;;;;19.75;39.06;102177.09;5082373;28;1196;-47
2020/12/21 04:51:40;;;;;;;;;;;;;;;19.22;40.14;102174.03;5082703;28;1203;-51
2020/12/21 04:54:05;;;;;;;;;;;;;;;20.33;37.70;102180.13;5084793;28;1106;-45
2020/12/21 04:56:31;;;;;;;;;;;;;;;20.56;37.16;102184.41;5075410;28;1451;-53
2020/12/21 04:58:56;;;;;;;;;;;;;;;20.42;37.67;102181.25;5087711;28;1157;-53
2020/12/21 05:01:21;;;;;;;;;;;;;;;20.07;38.16;102176.31;5082666;28;1917;-46
2020/12/21 05:03:50;;;;;;;;;;;;;;;19.35;39.62;102181.94;5077500;28;843;-46
2020/12/21 05:06:15;;;;;;;;;;;;;;;20.00;38.48;102179.28;5089979;28;958;-49
2020/12/21 05:08:44;;;;;;;;;;;;;;;20.76;37.10;102177.34;5097457;28;783;-48
2020/12/21 05:11:09;;;;;;;;;;;;;;;20.28;37.88;102178.13;5098027;28;767;-46
2020/12/21 05:13:35;;;;;;;;;;;;;;;20.42;37.69;102177.69;5097306;28;826;-47
2020/12/21 05:16:03;;;;;;;;;;;;;;;19.74;38.88;102183.69;5097341;28;755;-45
2020/12/21 05:18:34;;;;;;;;;;;;;;;19.59;39.37;102189.91;5097405;28;1149;-46
2020/12/21 05:20:59;;;;;;;;;;;;;;;20.47;37.40;102181.31;5097115;28;1914;-44
2020/12/21 05:23:25;;;;;;;;;;;;;;;20.50;37.38;102191.81;5097343;28;871;-46
2020/12/21 05:26:16;;;;;;;;;;;;;;;20.25;38.03;102192.47;5097389;28;843;-46
2020/12/21 05:28:42;;;;;;;;;;;;;;;19.88;38.73;102192.41;5093966;28;992;-47
2020/12/21 05:31:08;;;;;;;;;;;;;;;19.70;39.02;102194.44;5097383;28;759;-45
2020/12/21 05:33:34;;;;;;;;;;;;;;;20.69;37.03;102199.69;5097291;28;807;-47
2020/12/21 05:36:10;;;;;;;;;;;;;;;20.41;37.42;102195.34;5096971;28;891;-46
2020/12/21 05:38:35;;;;;;;;;;;;;;;20.13;38.19;102198.19;5096988;28;885;-47
2020/12/21 05:41:09;;;;;;;;;;;;;;;19.96;38.42;102203.00;5097594;28;1976;-49
2020/12/21 05:43:36;;;;;;;;;;;;;;;19.75;39.15;102201.94;5098951;28;900;-47
2020/12/21 05:46:02;;;;;;;;;;;;;;;20.63;37.18;102206.28;5102152;28;999;-52
2020/12/21 05:48:30;;;;;;;;;;;;;;;20.84;36.56;102198.97;5096628;28;1272;-46
2020/12/21 05:50:56;;;;;;;;;;;;;;;20.34;37.89;102209.38;5095958;28;1213;-49
2020/12/21 05:53:21;;;;;;;;;;;;;;;20.04;38.23;102202.50;5095739;28;862;-46
2020/12/21 05:55:47;;;;;;;;;;;;;;;19.61;39.07;102202.31;5096821;28;790;-45
2020/12/21 05:58:12;;;;;;;;;;;;;;;19.46;39.72;102211.28;5096560;28;731;-46
2020/12/21 06:00:38;;;;;;;;;;;;;;;20.46;37.72;102209.22;5095350;28;799;-45
2020/12/21 06:03:04;;;;;;;;;;;;;;;20.72;37.01;102215.78;5096580;28;1894;-48
2020/12/21 06:05:30;;;;;;;;;;;;;;;20.28;37.83;102213.22;5095281;28;958;-45
2020/12/21 06:07:55;;;;;;;;;;;;;;;20.16;37.97;102211.47;5095505;28;859;-45
2020/12/21 06:10:20;;;;;;;;;;;;;;;19.68;39.01;102215.94;5095317;28;858;-45
2020/12/21 06:12:46;;;;;;;;;;;;;;;20.44;37.65;102219.69;5095324;28;802;-45
2020/12/21 06:15:12;;;;;;;;;;;;;;;21.16;36.26;102212.66;5096665;28;795;-46
2020/12/21 06:17:38;;;;;;;;;;;;;;;20.61;37.25;102225.91;5096573;28;815;-47
2020/12/21 06:20:04;;;;;;;;;;;;;;;20.58;37.24;102215.38;5096045;28;1037;-46
2020/12/21 06:22:30;;;;;;;;;;;;;;;20.04;38.37;102221.84;5096316;28;1917;-46
2020/12/21 06:24:55;;;;;;;;;;;;;;;19.38;39.69;102220.03;5096521;28;774;-48
2020/12/21 06:27:20;;;;;;;;;;;;;;;20.41;37.59;102226.59;5096429;28;794;-46
2020/12/21 06:29:46;;;;;;;;;;;;;;;21.09;36.42;102225.09;5096517;28;804;-44
2020/12/21 06:32:12;;;;;;;;;;;;;;;20.37;37.64;102224.59;5095357;28;1185;-45
2020/12/21 06:34:38;;;;;;;;;;;;;;;20.27;37.75;102230.88;5096319;28;751;-44
2020/12/21 06:37:03;;;;;;;;;;;;;;;19.82;38.64;102227.41;5096041;28;1040;-46
2020/12/21 06:39:29;;;;;;;;;;;;;;;19.35;39.86;102231.56;5096488;28;748;-45
2020/12/21 06:42:03;;;;;;;;;;;;;;;20.51;37.68;102226.66;5095919;28;1922;-46
2020/12/21 06:44:29;;;;;;;;;;;;;;;20.48;37.39;102235.47;5106505;28;1114;-46
2020/12/21 06:46:55;;;;;;;;;;;;;;;20.24;38.08;102236.94;5116846;28;983;-45
2020/12/21 06:49:20;;;;;;;;;;;;;;;20.10;38.07;102229.06;5116489;28;826;-46
2020/12/21 06:51:46;;;;;;;;;;;;;;;19.53;39.35;102229.56;5099878;28;969;-46
2020/12/21 06:54:11;;;;;;;;;;;;;;;20.18;38.15;102234.13;5096426;28;732;-45
2020/12/21 06:56:37;;;;;;;;;;;;;;;20.99;36.50;102228.66;5095836;28;747;-44
2020/12/21 06:59:10;;;;;;;;;;;;;;;21.47;35.42;102234.91;5096434;28;909;-49
2020/12/21 07:01:35;;;;;;;;;;;;;;;20.70;36.88;102229.00;5097644;28;1985;-46
2020/12/21 07:04:01;;;;;;;;;;;;;;;20.49;37.63;102234.34;5099752;28;833;-46
2020/12/21 07:06:26;;;;;;;;;;;;;;;19.96;38.37;102242.50;5100041;28;949;-45
2020/12/21 07:08:56;;;;;;;;;;;;;;;19.53;39.33;102238.69;5100012;28;752;-46
2020/12/21 07:11:22;;;;;;;;;;;;;;;19.98;38.81;102239.47;5099717;28;819;-46
2020/12/21 07:13:48;;;;;;;;;;;;;;;20.78;37.00;102238.75;5099945;28;735;-47
2020/12/21 07:16:17;;;;;;;;;;;;;;;20.43;37.61;102243.72;5098857;28;1117;-45
2020/12/21 07:18:43;;;;;;;;;;;;;;;20.29;37.81;102248.03;5099523;28;1125;-48
2020/12/21 07:21:09;;;;;;;;;;;;;;;19.71;39.02;102240.25;5099794;28;1893;-45
2020/12/21 07:23:35;;;;;;;;;;;;;;;19.67;39.49;102244.63;5099651;28;763;-48
2020/12/21 07:26:00;;;;;;;;;;;;;;;20.72;37.25;102254.47;5099448;28;791;-45
2020/12/21 07:28:29;;;;;;;;;;;;;;;20.33;37.63;102257.47;5099741;28;744;-48
2020/12/21 07:31:13;;;;;;;;;;;;;;;20.18;38.00;102258.97;5099551;28;751;-46
2020/12/21 07:33:48;;;;;;;;;;;;;;;19.70;39.00;102249.63;5099410;28;826;-46
2020/12/21 07:36:14;;;;;;;;;;;;;;;19.03;40.37;102259.81;5099602;28;957;-46
2020/12/21 07:38:39;;;;;;;;;;;;;;;20.12;38.40;102248.16;5099577;28;862;-45
2020/12/21 07:41:05;;;;;;;;;;;;;;;20.64;37.31;102252.16;5099275;28;1909;-45
2020/12/21 07:43:34;;;;;;;;;;;;;;;20.26;37.96;102259.59;5101197;28;1121;-46
2020/12/21 07:46:02;;;;;;;;;;;;;;;19.93;38.38;102253.22;5117886;28;875;-46
2020/12/21 07:48:27;;;;;;;;;;;;;;;19.51;39.34;102249.13;5119847;28;707;-45
2020/12/21 07:50:53;;;;;;;;;;;;;;;20.12;38.32;102246.22;5108493;28;961;-48
2020/12/21 07:53:19;;;;;;;;;;;;;;;20.93;36.67;102249.91;5099170;28;811;-46
2020/12/21 07:55:57;;;;;;;;;;;;;;;20.12;38.06;102243.47;5097829;28;835;-47
2020/12/21 07:58:22;;;;;;;;;;;;;;;20.04;38.13;102246.69;5098998;28;759;-45
2020/12/21 08:00:54;;;;;;;;;;;;;;;19.34;39.93;102245.63;5098614;28;1973;-48
2020/12/21 08:03:20;;;;;;;;;;;;;;;20.18;38.35;102247.09;5096003;28;1322;-46
2020/12/21 08:05:46;;;;;;;;;;;;;;;20.78;36.83;102247.88;5097699;28;1299;-46
2020/12/21 08:08:12;;;;;;;;;;;;;;;20.26;37.87;102245.78;5098861;28;826;-53
2020/12/21 08:10:39;;;;;;;;;;;;;;;20.07;38.21;102243.41;5098767;28;827;-49
2020/12/21 08:13:17;;;;;;;;;;;;;;;19.49;39.36;102241.13;5098483;28;819;-52
2020/12/21 08:15:43;;;;;;;;;;;;;;;19.95;38.83;102245.47;5098608;28;1224;-47
2020/12/21 08:18:12;;;;;;;;;;;;;;;20.91;36.77;102246.56;5098421;28;743;-45
2020/12/21 08:20:41;;;;;;;;;;;;;;;20.75;36.94;102248.41;5097916;28;1244;-47
2020/12/21 08:23:06;;;;;;;;;;;;;;;20.40;37.69;102246.16;5098600;28;1974;-49
2020/12/21 08:25:31;;;;;;;;;;;;;;;20.03;38.32;102242.25;5098321;28;794;-54
2020/12/21 08:27:58;;;;;;;;;;;;;;;19.47;39.54;102246.06;5098474;28;847;-48
2020/12/21 08:30:24;;;;;;;;;;;;;;;20.25;37.95;102244.94;5098539;28;840;-53
2020/12/21 08:32:52;;;;;;;;;;;;;;;20.87;36.83;102250.97;5098268;28;828;-48
2020/12/21 08:35:24;;;;;;;;;;;;;;;20.22;38.00;102245.47;5098184;28;957;-51
2020/12/21 08:37:50;;;;;;;;;;;;;;;20.42;37.53;102244.81;5098346;28;807;-47
2020/12/21 08:40:15;;;;;;;;;;;;;;;19.70;38.94;102246.88;5098017;28;736;-48
2020/12/21 08:42:41;;;;;;;;;;;;;;;20.17;38.04;102238.00;5098505;28;1918;-45
2020/12/21 08:45:07;;;;;;;;;;;;;;;20.90;36.78;102244.06;5113470;28;1106;-46
2020/12/21 08:47:32;;;;;;;;;;;;;;;20.29;37.73;102245.28;5118100;28;897;-46
2020/12/21 08:49:58;;;;;;;;;;;;;;;20.22;37.92;102244.66;5114830;28;960;-49
2020/12/21 08:52:23;;;;;;;;;;;;;;;19.58;39.31;102232.38;5098050;28;859;-44
2020/12/21 08:54:49;;;;;;;;;;;;;;;19.79;39.05;102237.03;5097760;28;823;-45
2020/12/21 08:57:14;;;;;;;;;;;;;;;20.65;37.40;102237.22;5098100;28;744;-43
2020/12/21 08:59:40;;;;;;;;;;;;;;;20.69;37.13;102232.88;5097902;28;775;-46
2020/12/21 09:02:05;;;;;;;;;;;;;;;20.32;37.91;102236.44;5097453;28;1918;-45
2020/12/21 09:04:30;;;;;;;;;;;;;;;19.97;38.32;102237.78;5097827;28;760;-47
2020/12/21 09:06:56;;;;;;;;;;;;;;;19.54;39.29;102234.00;5097756;28;997;-45
2020/12/21 09:09:22;;;;;;;;;;;;;;;19.25;40.02;102226.75;5097521;28;858;-44
2020/12/21 09:11:52;;;;;;;;;;;;;;;20.22;38.02;102228.91;5097761;28;830;-44
2020/12/21 09:14:17;;;;;;;;;;;;;;;20.70;37.07;102231.78;5097165;28;819;-44
2020/12/21 09:16:43;;;;;;;;;;;;;;;20.24;37.79;102221.19;5097497;28;755;-44
2020/12/21 09:19:08;;;;;;;;;;;;;;;20.06;38.09;102219.63;5097692;28;1012;-44
2020/12/21 09:21:33;;;;;;;;;;;;;;;19.13;40.02;102213.09;5096995;28;1922;-44
2020/12/21 09:23:59;;;;;;;;;;;;;;;20.00;38.38;102217.94;5096661;28;747;-45
2020/12/21 09:26:25;;;;;;;;;;;;;;;20.70;37.25;102214.38;5097527;28;811;-45
2020/12/21 09:28:51;;;;;;;;;;;;;;;20.26;37.70;102207.09;5097231;28;755;-44
2020/12/21 09:31:16;;;;;;;;;;;;;;;20.35;37.59;102211.06;5097506;28;776;-45
2020/12/21 09:33:42;;;;;;;;;;;;;;;19.75;38.73;102205.50;5097162;28;791;-47
2020/12/21 09:36:07;;;;;;;;;;;;;;;19.10;40.15;102197.06;5096998;28;1009;-44
2020/12/21 09:38:33;;;;;;;;;;;;;;;20.09;38.46;102197.03;5096870;28;835;-44
2020/12/21 09:40:59;;;;;;;;;;;;;;;20.80;36.75;102195.94;5096950;28;1980;-44
2020/12/21 09:43:24;;;;;;;;;;;;;;;20.39;37.71;102190.09;5097805;28;986;-43
2020/12/21 09:45:49;;;;;;;;;;;;;;;20.26;37.85;102182.25;5117357;28;810;-43
2020/12/21 09:48:15;;;;;;;;;;;;;;;19.65;39.14;102181.41;5117150;28;807;-44
2020/12/21 09:50:40;;;;;;;;;;;;;;;19.75;38.89;102175.16;5109225;28;964;-44
2020/12/21 09:53:06;;;;;;;;;;;;;;;20.66;37.17;102178.09;5096843;28;882;-43
2020/12/21 09:55:31;;;;;;;;;;;;;;;20.29;37.61;102178.97;5096718;28;806;-44
2020/12/21 09:57:56;;;;;;;;;;;;;;;20.22;38.02;102173.66;5096827;28;779;-44
2020/12/21 10:00:22;;;;;;;;;;;;;;;19.78;38.67;102174.66;5096881;28;839;-44
2020/12/21 10:02:47;;;;;;;;;;;;;;;19.49;39.56;102172.16;5096362;28;1906;-44
2020/12/21 10:05:13;;;;;;;;;;;;;;;20.56;37.42;102172.53;5096621;28;973;-44
2020/12/21 10:07:38;;;;;;;;;;;;;;;20.61;37.10;102175.31;5097094;28;791;-43
2020/12/21 10:10:04;;;;;;;;;;;;;;;20.23;38.03;102160.69;5096257;28;799;-44
2020/12/21 10:12:29;;;;;;;;;;;;;;;20.17;37.93;102168.94;5097038;28;874;-45
2020/12/21 10:14:54;;;;;;;;;;;;;;;19.30;39.74;102168.06;5096531;28;815;-44
2020/12/21 10:17:20;;;;;;;;;;;;;;;20.00;38.81;102171.81;5096394;28;727;-44
2020/12/21 10:19:45;;;;;;;;;;;;;;;20.78;36.93;102175.16;5096371;28;1027;-44
2020/12/21 10:22:11;;;;;;;;;;;;;;;20.45;37.44;102164.16;5096847;28;1902;-44
2020/12/21 10:24:36;;;;;;;;;;;;;;;20.36;37.63;102163.00;5096235;28;783;-48
2020/12/21 10:27:02;;;;;;;;;;;;;;;19.60;39.13;102158.44;5096651;28;792;-44
2020/12/21 10:29:27;;;;;;;;;;;;;;;19.26;39.88;102161.41;5096928;28;740;-46
2020/12/21 10:31:53;;;;;;;;;;;;;;;20.36;37.69;102163.00;5096169;28;756;-43
2020/12/21 10:34:18;;;;;;;;;;;;;;;20.78;36.85;102156.66;5096485;28;790;-44
2020/12/21 10:36:48;;;;;;;;;;;;;;;20.29;37.90;102157.69;5097175;28;1022;-47
2020/12/21 10:39:13;;;;;;;;;;;;;;;20.17;37.77;102159.81;5100122;28;1185;-44
2020/12/21 10:41:39;;;;;;;;;;;;;;;19.49;39.32;102157.53;5100543;28;1926;-44
2020/12/21 10:44:04;;;;;;;;;;;;;;;20.12;38.15;102159.78;5099829;28;1054;-50
2020/12/21 10:46:29;;;;;;;;;;;;;;;20.92;36.31;102151.47;5099887;28;1104;-46
2020/12/21 10:48:55;;;;;;;;;;;;;;;20.49;37.45;102156.16;5100159;28;1363;-44
2020/12/21 10:51:26;;;;;;;;;;;;;;;20.44;37.41;102151.47;5100310;28;961;-45
2020/12/21 10:53:51;;;;;;;;;;;;;;;19.71;38.78;102148.34;5100113;28;795;-47
2020/12/21 10:56:17;;;;;;;;;;;;;;;19.70;39.24;102150.28;5100251;28;812;-46
2020/12/21 10:58:42;;;;;;;;;;;;;;;20.54;37.35;102144.31;5100574;28;763;-50
2020/12/21 11:01:08;;;;;;;;;;;;;;;20.50;37.25;102142.09;5100017;28;1967;-49
2020/12/21 11:03:34;;;;;;;;;;;;;;;20.29;37.73;102146.66;5100039;28;774;-51
2020/12/21 11:05:59;;;;;;;;;;;;;;;19.88;38.52;102139.97;5100163;28;1024;-50
2020/12/21 11:08:24;;;;;;;;;;;;;;;19.45;39.46;102137.88;5099793;28;1229;-50
2020/12/21 11:10:50;;;;;;;;;;;;;;;20.13;38.20;102148.47;5099882;28;747;-46
2020/12/21 11:13:15;;;;;;;;;;;;;;;20.93;36.63;102138.44;5100019;28;874;-45
2020/12/21 11:15:41;;;;;;;;;;;;;;;20.56;37.26;102145.72;5099816;28;791;-45
2020/12/21 11:18:07;;;;;;;;;;;;;;;20.43;37.47;102149.78;5099701;28;819;-45
2020/12/21 11:20:32;;;;;;;;;;;;;;;20.19;37.75;102146.59;5099507;28;1035;-45
2020/12/21 11:22:58;;;;;;;;;;;;;;;19.49;39.38;102144.56;5099524;28;1921;-47
2020/12/21 11:25:23;;;;;;;;;;;;;;;20.29;38.04;102140.31;5099609;28;823;-45
2020/12/21 11:27:48;;;;;;;;;;;;;;;20.91;36.44;102124.09;5099807;28;755;-47
2020/12/21 11:30:14;;;;;;;;;;;;;;;20.21;37.97;102124.22;5099423;28;740;-48
2020/12/21 11:32:39;;;;;;;;;;;;;;;20.33;37.62;102131.22;5099562;28;775;-46
2020/12/21 11:35:05;;;;;;;;;;;;;;;19.39;39.70;102133.44;5099303;28;1005;-48
2020/12/21 11:37:31;;;;;;;;;;;;;;;20.06;38.36;102125.75;5099189;28;831;-47
2020/12/21 11:39:56;;;;;;;;;;;;;;;20.82;36.81;102119.06;5099711;28;827;-47
2020/12/21 11:42:21;;;;;;;;;;;;;;;20.48;37.36;102132.41;5099692;28;2055;-46
2020/12/21 11:44:47;;;;;;;;;;;;;;;20.22;37.94;102125.91;5111556;28;1097;-46
2020/12/21 11:47:13;;;;;;;;;;;;;;;19.78;38.82;102130.50;5119852;28;728;-47
2020/12/21 11:49:39;;;;;;;;;;;;;;;19.37;40.11;102124.56;5119825;28;790;-45
2020/12/21 11:52:04;;;;;;;;;;;;;;;20.55;37.25;102127.47;5099918;28;949;-48
2020/12/21 11:54:30;;;;;;;;;;;;;;;20.78;36.76;102122.66;5099249;28;760;-46
2020/12/21 11:56:55;;;;;;;;;;;;;;;20.41;37.42;102123.50;5099106;28;755;-46
2020/12/21 11:59:21;;;;;;;;;;;;;;;20.15;37.83;102118.66;5099170;28;769;-47
2020/12/21 12:01:46;;;;;;;;;;;;;;;19.51;39.29;102115.88;5099088;28;1913;-46
2020/12/21 12:04:12;;;;;;;;;;;;;;;20.24;37.90;102127.25;5098830;28;794;-46
2020/12/21 12:06:37;;;;;;;;;;;;;;;20.72;36.85;102123.72;5098849;28;1013;-46
2020/12/21 12:09:02;;;;;;;;;;;;;;;20.13;38.05;102120.00;5099000;28;811;-46
2020/12/21 12:11:28;;;;;;;;;;;;;;;20.29;37.83;102118.22;5098918;28;1002;-47
2020/12/21 12:13:53;;;;;;;;;;;;;;;19.62;39.10;102117.66;5098876;28;843;-46
2020/12/21 12:16:20;;;;;;;;;;;;;;;20.04;38.44;102122.44;5098918;28;771;-46
2020/12/21 12:18:45;;;;;;;;;;;;;;;20.84;36.74;102124.31;5097547;28;1100;-47
2020/12/21 12:21:10;;;;;;;;;;;;;;;20.30;37.91;102126.22;5098353;28;1917;-46
2020/12/21 12:23:36;;;;;;;;;;;;;;;20.30;37.66;102125.38;5098678;28;728;-45
2020/12/21 12:26:01;;;;;;;;;;;;;;;19.70;38.92;102127.34;5098627;28;827;-47
2020/12/21 12:28:27;;;;;;;;;;;;;;;19.46;39.84;102130.44;5098810;28;756;-45
2020/12/21 12:30:52;;;;;;;;;;;;;;;20.03;38.62;102119.94;5098590;28;751;-46
2020/12/21 12:33:17;;;;;;;;;;;;;;;20.88;36.91;102121.88;5097974;28;1232;-46
2020/12/21 12:35:43;;;;;;;;;;;;;;;20.28;37.89;102124.81;5097888;28;1272;-49
2020/12/21 12:38:09;;;;;;;;;;;;;;;20.35;37.78;102122.66;5098128;28;1098;-47
2020/12/21 12:40:34;;;;;;;;;;;;;;;19.73;39.05;102133.19;5097857;28;1277;-45
2020/12/21 12:42:59;;;;;;;;;;;;;;;19.79;39.13;102134.06;5098258;28;1972;-44
2020/12/21 12:45:25;;;;;;;;;;;;;;;20.74;37.01;102129.81;5115842;28;1152;-44
2020/12/21 12:47:50;;;;;;;;;;;;;;;20.88;36.46;102130.16;5118403;28;759;-43